createdAt,value
2018-01-29T00:02:01.527Z,0.80
2018-01-29T00:05:03.510Z,1.17
2018-01-29T00:08:05.398Z,1.00
2018-01-29T00:11:07.310Z,0.87
2018-01-29T00:14:09.203Z,1.00
2018-01-29T00:17:11.090Z,1.10
2018-01-29T00:20:12.997Z,0.90
2018-01-29T00:23:15.015Z,0.80
2018-01-29T00:26:17.008Z,0.90
2018-01-29T00:29:18.979Z,0.75
2018-01-29T00:32:20.879Z,0.80
2018-01-29T00:35:22.802Z,0.80
2018-01-29T00:38:24.787Z,0.90
2018-01-29T00:41:26.683Z,0.75
2018-01-29T00:44:28.667Z,0.82
2018-01-29T00:47:30.668Z,0.82
2018-01-29T00:50:32.579Z,0.87
2018-01-29T00:53:34.578Z,0.90
2018-01-29T00:56:36.571Z,0.73
2018-01-29T00:59:38.672Z,0.83
2018-01-29T01:02:40.654Z,1.13
2018-01-29T01:05:42.563Z,0.80
2018-01-29T01:08:44.461Z,0.78
2018-01-29T01:11:46.355Z,1.00
2018-01-29T01:14:48.343Z,0.70
2018-01-29T01:17:50.247Z,0.70
2018-01-29T01:20:52.131Z,0.90
2018-01-29T01:23:54.040Z,0.80
2018-01-29T01:26:55.926Z,0.80
2018-01-29T01:29:57.840Z,0.70
2018-01-29T01:32:59.826Z,0.85
2018-01-29T01:36:01.728Z,0.90
2018-01-29T01:39:03.671Z,0.70
2018-01-29T01:42:05.623Z,0.80
2018-01-29T01:45:07.523Z,0.90
2018-01-29T01:48:09.527Z,0.80
2018-01-29T01:51:11.423Z,0.80
2018-01-29T01:54:13.299Z,0.60
2018-01-29T01:57:15.206Z,0.65
2018-01-29T02:00:17.203Z,0.83
2018-01-29T02:03:19.156Z,0.83
2018-01-29T02:06:21.116Z,0.70
2018-01-29T02:09:23.091Z,0.80
2018-01-29T02:12:24.990Z,0.62
2018-01-29T02:15:26.874Z,0.70
2018-01-29T02:18:28.793Z,1.00
2018-01-29T02:21:30.771Z,0.60
2018-01-29T02:24:32.679Z,0.80
2018-01-29T02:27:34.569Z,0.80
2018-01-29T02:30:36.472Z,0.60
2018-01-29T02:33:38.368Z,0.62
2018-01-29T02:36:40.364Z,0.70
2018-01-29T02:39:42.260Z,0.70
2018-01-29T02:42:44.159Z,0.50
2018-01-29T02:45:46.146Z,0.50
2018-01-29T02:48:48.035Z,0.60
2018-01-29T02:51:49.960Z,0.70
2018-01-29T02:54:51.939Z,0.60
2018-01-29T02:57:53.824Z,0.47
2018-01-29T03:00:55.722Z,0.53
2018-01-29T03:03:57.659Z,0.60
2018-01-29T03:06:59.623Z,0.70
2018-01-29T03:10:01.611Z,0.70
2018-01-29T03:13:03.523Z,0.57
2018-01-29T03:16:05.416Z,0.77
2018-01-29T03:19:07.304Z,0.60
2018-01-29T03:22:09.200Z,0.60
2018-01-29T03:25:11.106Z,0.63
2018-01-29T03:28:13.099Z,0.60
2018-01-29T03:31:15.106Z,0.70
2018-01-29T03:34:17.086Z,0.50
2018-01-29T03:37:18.996Z,0.60
2018-01-29T03:40:20.991Z,0.90
2018-01-29T03:43:22.908Z,0.60
2018-01-29T03:46:24.895Z,0.60
2018-01-29T03:49:26.895Z,0.50
2018-01-29T03:52:28.910Z,0.63
2018-01-29T03:55:32.452Z,0.57
2018-01-29T03:58:34.422Z,0.70
2018-01-29T04:01:36.418Z,0.53
2018-01-29T04:04:38.310Z,0.60
2018-01-29T04:07:40.210Z,0.57
2018-01-29T04:10:43.103Z,0.50
2018-01-29T04:13:45.015Z,0.47
2018-01-29T04:16:46.914Z,0.70
2018-01-29T04:19:48.920Z,0.70
2018-01-29T04:22:50.906Z,0.60
2018-01-29T04:25:52.811Z,0.60
2018-01-29T04:28:54.703Z,0.60
2018-01-29T04:31:56.603Z,0.60
2018-01-29T04:34:58.599Z,0.67
2018-01-29T04:38:00.599Z,0.68
2018-01-29T04:41:02.831Z,0.60
2018-01-29T04:44:04.839Z,0.70
2018-01-29T04:47:06.795Z,0.50
2018-01-29T04:50:08.695Z,0.60
2018-01-29T04:53:10.590Z,0.67
2018-01-29T04:56:12.570Z,0.60
2018-01-29T04:59:14.473Z,0.50
2018-01-29T05:02:16.403Z,0.67
2018-01-29T05:05:18.362Z,0.60
2018-01-29T05:08:20.267Z,0.60
2018-01-29T05:11:22.178Z,0.50
2018-01-29T05:14:24.141Z,0.60
2018-01-29T05:17:26.101Z,0.60
2018-01-29T05:20:27.999Z,0.50
2018-01-29T05:23:29.987Z,0.60
2018-01-29T05:26:31.892Z,0.60
2018-01-29T05:29:33.891Z,0.53
2018-01-29T05:32:35.816Z,0.67
2018-01-29T05:35:37.808Z,0.50
2018-01-29T05:38:39.779Z,0.47
2018-01-29T05:41:41.783Z,0.60
2018-01-29T05:44:43.683Z,0.60
2018-01-29T05:47:45.675Z,0.40
2018-01-29T05:50:47.582Z,0.47
2018-01-29T05:53:49.558Z,0.50
2018-01-29T05:56:51.466Z,0.50
2018-01-29T05:59:53.444Z,0.60
2018-01-29T06:02:55.374Z,0.70
2018-01-29T06:05:57.194Z,0.47
2018-01-29T06:09:00.327Z,0.40
2018-01-29T06:12:02.195Z,0.67
2018-01-29T06:15:04.303Z,0.70
2018-01-29T06:18:06.258Z,0.70
2018-01-29T06:21:08.146Z,0.67
2018-01-29T06:24:10.039Z,0.60
2018-01-29T06:27:11.943Z,0.60
2018-01-29T06:30:13.824Z,0.60
2018-01-29T06:33:15.863Z,0.70
2018-01-29T06:36:17.765Z,0.70
2018-01-29T06:39:19.647Z,0.50
2018-01-29T06:42:21.530Z,0.50
2018-01-29T06:45:23.419Z,0.50
2018-01-29T06:48:25.308Z,0.60
2018-01-29T06:51:27.186Z,0.60
2018-01-29T06:54:30.067Z,0.60
2018-01-29T06:57:31.952Z,0.60
2018-01-29T07:00:33.846Z,0.60
2018-01-29T07:03:35.727Z,0.60
2018-01-29T07:06:37.622Z,0.53
2018-01-29T07:09:39.499Z,0.67
2018-01-29T07:12:41.411Z,0.50
2018-01-29T07:15:43.303Z,0.60
2018-01-29T07:18:45.174Z,0.40
2018-01-29T07:21:47.048Z,0.50
2018-01-29T07:24:48.950Z,0.50
2018-01-29T07:27:50.838Z,0.50
2018-01-29T07:30:52.739Z,0.60
2018-01-29T07:33:54.638Z,0.60
2018-01-29T07:36:56.515Z,0.60
2018-01-29T07:39:58.398Z,0.60
2018-01-29T07:43:00.283Z,0.43
2018-01-29T07:46:02.172Z,0.60
2018-01-29T07:49:04.056Z,0.50
2018-01-29T07:52:05.949Z,0.50
2018-01-29T07:55:07.824Z,0.50
2018-01-29T07:58:09.700Z,0.50
2018-01-29T08:01:11.587Z,0.53
2018-01-29T08:04:13.480Z,0.50
2018-01-29T08:07:15.364Z,0.50
2018-01-29T08:10:17.290Z,0.50
2018-01-29T08:13:19.296Z,0.60
2018-01-29T08:16:21.172Z,0.50
2018-01-29T08:19:23.052Z,0.53
2018-01-29T08:22:24.940Z,0.50
2018-01-29T08:25:26.821Z,0.50
2018-01-29T08:28:29.587Z,0.50
2018-01-29T08:31:31.472Z,0.40
2018-01-29T08:34:33.363Z,0.50
2018-01-29T08:37:35.240Z,0.43
2018-01-29T08:40:37.128Z,0.50
2018-01-29T08:43:39.020Z,0.60
2018-01-29T08:46:40.904Z,0.50
2018-01-29T08:49:42.787Z,0.50
2018-01-29T08:52:44.675Z,0.43
2018-01-29T08:55:46.557Z,0.60
2018-01-29T08:58:48.441Z,0.40
2018-01-29T09:01:50.358Z,0.50
2018-01-29T09:04:52.244Z,0.60
2018-01-29T09:07:54.136Z,0.50
2018-01-29T09:10:56.016Z,0.50
2018-01-29T09:13:57.912Z,0.50
2018-01-29T09:16:59.808Z,0.50
2018-01-29T09:20:01.700Z,0.40
2018-01-29T09:23:03.592Z,0.63
2018-01-29T09:26:05.472Z,0.43
2018-01-29T09:29:07.532Z,0.40
2018-01-29T09:32:09.364Z,0.40
2018-01-29T09:35:11.293Z,0.50
2018-01-29T09:38:13.180Z,0.40
2018-01-29T09:41:15.308Z,0.43
2018-01-29T09:44:17.184Z,0.50
2018-01-29T09:47:19.072Z,0.40
2018-01-29T09:50:20.956Z,0.50
2018-01-29T09:53:22.836Z,0.40
2018-01-29T09:56:24.716Z,0.30
2018-01-29T09:59:26.604Z,0.50
2018-01-29T10:02:28.680Z,0.40
2018-01-29T10:05:30.567Z,0.50
2018-01-29T10:08:32.563Z,0.50
2018-01-29T10:11:34.432Z,0.40
2018-01-29T10:14:36.383Z,0.53
2018-01-29T10:17:38.301Z,0.50
2018-01-29T10:20:40.168Z,0.40
2018-01-29T10:23:42.036Z,0.50
2018-01-29T10:26:43.936Z,0.43
2018-01-29T10:29:45.807Z,0.40
2018-01-29T10:32:47.687Z,0.40
2018-01-29T10:35:49.592Z,0.70
2018-01-29T10:38:51.483Z,0.50
2018-01-29T10:41:53.360Z,0.70
2018-01-29T10:44:55.240Z,0.70
2018-01-29T10:47:57.131Z,0.87
2018-01-29T10:50:58.995Z,0.60
2018-01-29T10:54:00.878Z,0.70
2018-01-29T10:57:02.740Z,0.63
2018-01-29T11:00:04.635Z,0.70
2018-01-29T11:03:06.507Z,0.70
2018-01-29T11:06:08.407Z,0.60
2018-01-29T11:09:10.295Z,0.60
2018-01-29T11:12:12.212Z,0.50
2018-01-29T11:15:14.106Z,0.70
2018-01-29T11:18:15.992Z,0.50
2018-01-29T11:21:17.876Z,0.57
2018-01-29T11:24:20.113Z,0.70
2018-01-29T11:27:21.991Z,0.70
2018-01-29T11:30:23.875Z,0.50
2018-01-29T11:33:25.767Z,0.70
2018-01-29T11:36:27.638Z,0.60
2018-01-29T11:39:29.519Z,0.50
2018-01-29T11:42:31.401Z,0.67
2018-01-29T11:45:33.276Z,0.40
2018-01-29T11:48:35.175Z,0.50
2018-01-29T11:51:37.055Z,0.50
2018-01-29T11:54:38.934Z,0.50
2018-01-29T11:57:40.815Z,0.50
2018-01-29T12:00:42.719Z,0.50
2018-01-29T12:03:44.591Z,0.60
2018-01-29T12:06:46.475Z,0.50
2018-01-29T12:09:48.379Z,0.50
2018-01-29T12:12:50.316Z,0.43
2018-01-29T12:15:52.158Z,0.50
2018-01-29T12:18:54.039Z,0.70
2018-01-29T12:21:55.917Z,0.50
2018-01-29T12:24:57.859Z,0.40
2018-01-29T12:27:59.733Z,0.50
2018-01-29T12:31:01.648Z,0.60
2018-01-29T12:34:03.523Z,0.53
2018-01-29T12:37:05.394Z,0.53
2018-01-29T12:40:07.287Z,0.50
2018-01-29T12:43:09.168Z,0.50
2018-01-29T12:46:11.039Z,0.40
2018-01-29T12:49:12.944Z,0.57
2018-01-29T12:52:14.835Z,0.50
2018-01-29T12:55:16.707Z,0.50
2018-01-29T12:58:18.599Z,0.40
2018-01-29T13:01:20.483Z,0.50
2018-01-29T13:04:22.627Z,0.40
2018-01-29T13:07:24.503Z,0.50
2018-01-29T13:10:26.539Z,0.60
2018-01-29T13:13:28.435Z,0.50
2018-01-29T13:16:30.330Z,0.50
2018-01-29T13:19:32.211Z,0.50
2018-01-29T13:22:34.086Z,0.50
2018-01-29T13:25:35.959Z,0.50
2018-01-29T13:28:37.833Z,0.50
2018-01-29T13:31:39.710Z,0.60
2018-01-29T13:34:41.595Z,0.30
2018-01-29T13:37:43.595Z,0.43
2018-01-29T13:40:45.463Z,0.30
2018-01-29T13:43:47.338Z,0.40
2018-01-29T13:46:49.216Z,0.50
2018-01-29T13:49:51.103Z,0.50
2018-01-29T13:52:52.978Z,0.43
2018-01-29T13:55:55.179Z,0.30
2018-01-29T13:58:57.063Z,0.40
2018-01-29T14:01:58.939Z,0.40
2018-01-29T14:05:01.078Z,0.50
2018-01-29T14:08:02.954Z,0.40
2018-01-29T14:11:04.830Z,0.43
2018-01-29T14:14:06.726Z,0.40
2018-01-29T14:17:08.593Z,0.40
2018-01-29T14:20:10.467Z,0.40
2018-01-29T14:23:12.345Z,0.40
2018-01-29T14:26:14.233Z,0.50
2018-01-29T14:29:16.119Z,0.40
2018-01-29T14:32:18.050Z,0.47
2018-01-29T14:35:19.986Z,0.40
2018-01-29T14:38:21.865Z,0.50
2018-01-29T14:41:23.822Z,0.40
2018-01-29T14:44:25.703Z,0.40
2018-01-29T14:47:27.587Z,0.40
2018-01-29T14:50:29.495Z,0.40
2018-01-29T14:53:31.380Z,0.50
2018-01-29T14:56:33.259Z,0.50
2018-01-29T14:59:35.147Z,0.50
2018-01-29T15:02:37.015Z,0.50
2018-01-29T15:05:38.904Z,0.50
2018-01-29T15:08:40.880Z,0.40
2018-01-29T15:11:42.755Z,0.40
2018-01-29T15:14:44.639Z,0.40
2018-01-29T15:17:46.523Z,0.50
2018-01-29T15:20:48.404Z,0.50
2018-01-29T15:23:50.281Z,0.40
2018-01-29T15:26:52.165Z,0.40
2018-01-29T15:29:54.043Z,0.40
2018-01-29T15:32:55.914Z,0.50
2018-01-29T15:35:57.799Z,0.40
2018-01-29T15:38:59.862Z,0.50
2018-01-29T15:42:01.747Z,0.47
2018-01-29T15:45:03.631Z,0.50
2018-01-29T15:48:05.515Z,0.40
2018-01-29T15:51:07.390Z,0.40
2018-01-29T15:54:09.266Z,0.43
2018-01-29T15:57:11.142Z,0.40
2018-01-29T16:00:13.842Z,0.40
2018-01-29T16:03:15.773Z,0.47
2018-01-29T16:06:17.636Z,0.40
2018-01-29T16:09:19.523Z,0.43
2018-01-29T16:12:21.424Z,0.40
2018-01-29T16:15:23.309Z,0.50
2018-01-29T16:18:25.255Z,0.40
2018-01-29T16:21:27.142Z,0.47
2018-01-29T16:24:29.028Z,0.30
2018-01-29T16:27:30.910Z,0.50
2018-01-29T16:30:32.799Z,0.42
2018-01-29T16:33:34.691Z,0.40
2018-01-29T16:36:36.591Z,0.40
2018-01-29T16:39:38.563Z,0.40
2018-01-29T16:42:40.450Z,0.50
2018-01-29T16:45:42.346Z,0.60
2018-01-29T16:48:44.243Z,0.50
2018-01-29T16:51:46.129Z,0.50
2018-01-29T16:54:48.022Z,0.37
2018-01-29T16:57:49.933Z,0.40
2018-01-29T17:00:51.863Z,0.30
2018-01-29T17:03:53.774Z,0.40
2018-01-29T17:06:55.671Z,0.40
2018-01-29T17:09:57.579Z,0.37
2018-01-29T17:12:59.471Z,0.37
2018-01-29T17:16:01.359Z,0.40
2018-01-29T17:19:03.264Z,0.40
2018-01-29T17:22:05.140Z,0.40
2018-01-29T17:25:07.036Z,0.50
2018-01-29T17:28:08.919Z,0.40
2018-01-29T17:31:10.907Z,0.40
2018-01-29T17:34:12.795Z,0.42
2018-01-29T17:37:14.703Z,0.30
2018-01-29T17:40:16.656Z,0.30
2018-01-29T17:43:18.595Z,0.30
2018-01-29T17:46:20.483Z,0.40
2018-01-29T17:49:23.382Z,0.30
2018-01-29T17:52:25.324Z,0.40
2018-01-29T17:55:27.215Z,0.40
2018-01-29T17:58:29.083Z,0.30
2018-01-29T18:01:31.234Z,0.40
2018-01-29T18:04:33.111Z,0.30
2018-01-29T18:07:35.007Z,0.47
2018-01-29T18:10:36.883Z,0.30
2018-01-29T18:13:38.753Z,0.30
2018-01-29T18:16:40.706Z,0.40
2018-01-29T18:19:42.579Z,0.50
2018-01-29T18:22:44.463Z,0.60
2018-01-29T18:25:46.372Z,0.40
2018-01-29T18:28:48.263Z,0.50
2018-01-29T18:31:50.157Z,0.50
2018-01-29T18:34:52.043Z,0.60
2018-01-29T18:37:53.929Z,0.60
2018-01-29T18:40:55.815Z,0.50
2018-01-29T18:43:57.677Z,0.50
2018-01-29T18:46:59.584Z,0.50
2018-01-29T18:50:01.488Z,0.43
2018-01-29T18:53:03.375Z,0.50
2018-01-29T18:56:05.244Z,0.50
2018-01-29T18:59:07.136Z,0.50
2018-01-29T19:02:09.023Z,0.37
2018-01-29T19:05:10.904Z,0.45
2018-01-29T19:08:12.818Z,0.40
2018-01-29T19:11:14.694Z,0.50
2018-01-29T19:14:17.501Z,0.50
2018-01-29T19:17:19.375Z,0.60
2018-01-29T19:20:21.362Z,0.53
2018-01-29T19:23:23.254Z,0.70
2018-01-29T19:26:25.131Z,0.40
2018-01-29T19:29:27.123Z,0.50
2018-01-29T19:32:29.003Z,0.50
2018-01-29T19:35:30.904Z,0.40
2018-01-29T19:38:32.838Z,0.60
2018-01-29T19:41:35.052Z,0.53
2018-01-29T19:44:37.106Z,0.62
2018-01-29T19:47:38.995Z,1.30
2018-01-29T19:50:40.889Z,0.60
2018-01-29T19:53:42.783Z,0.60
2018-01-29T19:56:44.655Z,0.50
2018-01-29T19:59:46.535Z,0.40
2018-01-29T20:02:48.406Z,0.40
2018-01-29T20:05:50.286Z,0.63
2018-01-29T20:08:52.171Z,0.70
2018-01-29T20:11:54.147Z,0.73
2018-01-29T20:14:56.043Z,0.77
2018-01-29T20:17:57.934Z,1.00
2018-01-29T20:20:59.814Z,1.00
2018-01-29T20:24:01.716Z,1.03
2018-01-29T20:27:03.604Z,1.20
2018-01-29T20:30:05.514Z,1.00
2018-01-29T20:33:07.403Z,0.90
2018-01-29T20:36:09.579Z,0.70
2018-01-29T20:39:11.459Z,0.90
2018-01-29T20:42:13.339Z,0.90
2018-01-29T20:45:15.234Z,0.90
2018-01-29T20:48:17.198Z,0.80
2018-01-29T20:51:19.083Z,0.80
2018-01-29T20:54:20.988Z,0.90
2018-01-29T20:57:22.867Z,0.90
2018-01-29T21:00:24.763Z,1.30
2018-01-29T21:03:26.663Z,0.77
2018-01-29T21:06:28.559Z,0.70
2018-01-29T21:09:30.452Z,0.70
2018-01-29T21:12:32.411Z,1.00
2018-01-29T21:15:34.276Z,0.67
2018-01-29T21:18:36.151Z,0.70
2018-01-29T21:21:38.022Z,0.70
2018-01-29T21:24:39.933Z,0.80
2018-01-29T21:27:41.804Z,0.93
2018-01-29T21:30:43.715Z,0.90
2018-01-29T21:33:45.769Z,0.57
2018-01-29T21:36:47.711Z,0.90
2018-01-29T21:39:49.619Z,0.80
2018-01-29T21:42:51.550Z,1.00
2018-01-29T21:45:53.518Z,0.90
2018-01-29T21:48:55.500Z,0.80
2018-01-29T21:51:57.515Z,1.00
2018-01-29T21:54:59.410Z,0.70
2018-01-29T21:58:01.308Z,0.70
2018-01-29T22:01:03.325Z,0.80
2018-01-29T22:04:05.310Z,0.60
2018-01-29T22:07:07.204Z,0.70
2018-01-29T22:10:09.111Z,0.67
2018-01-29T22:13:11.103Z,0.67
2018-01-29T22:16:13.103Z,0.60
2018-01-29T22:19:15.004Z,0.50
2018-01-29T22:22:16.951Z,0.70
2018-01-29T22:25:18.880Z,0.60
2018-01-29T22:28:20.796Z,0.70
2018-01-29T22:31:22.778Z,0.80
2018-01-29T22:34:24.699Z,0.70
2018-01-29T22:37:26.597Z,0.60
2018-01-29T22:40:28.503Z,0.80
2018-01-29T22:43:30.484Z,0.60
2018-01-29T22:46:32.379Z,0.60
2018-01-29T22:49:34.275Z,0.73
2018-01-29T22:52:36.179Z,0.63
2018-01-29T22:55:38.162Z,0.90
2018-01-29T22:58:40.072Z,0.83
2018-01-29T23:01:41.958Z,0.50
2018-01-29T23:04:43.924Z,0.60
2018-01-29T23:07:45.863Z,0.70
2018-01-29T23:10:47.783Z,0.50
2018-01-29T23:13:49.755Z,0.62
2018-01-29T23:16:51.658Z,0.60
2018-01-29T23:19:53.552Z,0.50
2018-01-29T23:22:55.551Z,0.60
2018-01-29T23:25:57.542Z,0.70
2018-01-29T23:28:59.439Z,0.60
2018-01-29T23:32:01.342Z,0.60
2018-01-29T23:35:03.230Z,0.60
2018-01-29T23:38:05.137Z,0.60
2018-01-29T23:41:07.033Z,0.60
2018-01-29T23:44:08.922Z,0.57
2018-01-29T23:47:10.839Z,0.50
2018-01-29T23:50:12.815Z,0.80
2018-01-29T23:53:14.719Z,0.60
2018-01-29T23:56:16.615Z,0.70
2018-01-29T23:59:18.503Z,0.60
